createdAt,value
2018-03-11T00:01:53.264Z,80.10
2018-03-11T00:04:19.553Z,80.00
2018-03-11T00:06:45.739Z,79.90
2018-03-11T00:09:11.937Z,79.60
2018-03-11T00:11:38.206Z,79.60
2018-03-11T00:14:04.379Z,79.30
2018-03-11T00:16:30.618Z,79.20
2018-03-11T00:18:56.852Z,79.20
2018-03-11T00:21:23.068Z,79.20
2018-03-11T00:23:49.290Z,80.00
2018-03-11T00:26:15.504Z,78.90
2018-03-11T00:28:42.408Z,79.00
2018-03-11T00:31:08.606Z,79.00
2018-03-11T00:33:34.752Z,78.90
2018-03-11T00:36:00.905Z,78.80
2018-03-11T00:38:27.873Z,78.90
2018-03-11T00:40:54.760Z,78.80
2018-03-11T00:43:20.914Z,78.80
2018-03-11T00:45:47.897Z,78.70
2018-03-11T00:48:14.090Z,78.60
2018-03-11T00:50:40.325Z,78.50
2018-03-11T00:53:06.534Z,78.60
2018-03-11T00:55:32.725Z,78.40
2018-03-11T00:57:58.894Z,78.40
2018-03-11T01:00:25.095Z,78.30
2018-03-11T01:02:51.342Z,78.30
2018-03-11T01:05:17.489Z,78.40
2018-03-11T01:07:44.428Z,78.40
2018-03-11T01:10:10.614Z,78.30
2018-03-11T01:12:36.834Z,79.20
2018-03-11T01:15:03.054Z,78.80
2018-03-11T01:17:29.239Z,78.50
2018-03-11T01:19:55.396Z,78.50
2018-03-11T01:22:21.653Z,78.70
2018-03-11T01:24:47.834Z,78.60
2018-03-11T01:27:14.021Z,78.60
2018-03-11T01:29:40.198Z,78.60
2018-03-11T01:32:06.394Z,78.80
2018-03-11T01:34:32.558Z,78.80
2018-03-11T01:36:58.758Z,78.60
2018-03-11T01:39:24.967Z,78.70
2018-03-11T01:41:51.165Z,79.00
2018-03-11T01:44:17.298Z,78.40
2018-03-11T01:46:43.550Z,78.50
2018-03-11T01:49:09.740Z,78.40
2018-03-11T01:51:35.912Z,78.40
2018-03-11T01:54:02.114Z,78.50
2018-03-11T01:56:28.291Z,78.60
2018-03-11T01:58:54.466Z,78.80
2018-03-11T02:01:20.644Z,79.10
2018-03-11T02:03:47.641Z,79.00
2018-03-11T02:06:13.834Z,78.80
2018-03-11T02:08:40.068Z,79.10
2018-03-11T02:11:06.274Z,79.00
2018-03-11T02:13:32.508Z,78.90
2018-03-11T02:15:58.689Z,79.10
2018-03-11T02:18:24.931Z,78.90
2018-03-11T02:20:51.115Z,78.90
2018-03-11T02:23:17.289Z,78.40
2018-03-11T02:25:44.250Z,78.80
2018-03-11T02:28:11.219Z,78.70
2018-03-11T02:30:37.370Z,78.60
2018-03-11T02:33:03.580Z,78.60
2018-03-11T02:35:29.799Z,78.70
2018-03-11T02:37:56.003Z,79.10
2018-03-11T02:40:22.975Z,78.70
2018-03-11T02:42:49.123Z,78.60
2018-03-11T02:45:15.342Z,78.70
2018-03-11T02:47:41.545Z,78.60
2018-03-11T02:50:08.418Z,78.50
2018-03-11T02:52:34.654Z,78.50
2018-03-11T02:55:00.799Z,78.60
2018-03-11T02:57:27.020Z,78.60
2018-03-11T02:59:53.198Z,78.70
2018-03-11T03:02:19.447Z,78.50
2018-03-11T03:04:45.623Z,78.30
2018-03-11T03:07:11.881Z,78.30
2018-03-11T03:09:38.049Z,78.10
2018-03-11T03:12:04.286Z,78.00
2018-03-11T03:14:30.449Z,78.00
2018-03-11T03:16:56.751Z,78.00
2018-03-11T03:19:22.998Z,78.00
2018-03-11T03:21:49.890Z,77.80
2018-03-11T03:24:16.082Z,77.70
2018-03-11T03:26:42.323Z,77.60
2018-03-11T03:29:08.525Z,77.70
2018-03-11T03:31:35.414Z,77.50
2018-03-11T03:34:01.598Z,77.60
2018-03-11T03:36:28.527Z,77.40
2018-03-11T03:38:54.653Z,77.40
2018-03-11T03:41:20.970Z,77.50
2018-03-11T03:43:47.190Z,77.60
2018-03-11T03:46:13.362Z,77.70
2018-03-11T03:48:39.538Z,77.60
2018-03-11T03:51:05.749Z,77.50
2018-03-11T03:53:31.934Z,77.60
2018-03-11T03:55:58.898Z,77.50
2018-03-11T03:58:25.078Z,77.50
2018-03-11T04:00:51.254Z,77.40
2018-03-11T04:03:17.467Z,77.40
2018-03-11T04:05:44.378Z,77.20
2018-03-11T04:08:10.536Z,77.10
2018-03-11T04:10:37.470Z,77.20
2018-03-11T04:13:04.387Z,77.10
2018-03-11T04:15:30.590Z,77.10
2018-03-11T04:17:56.771Z,77.50
2018-03-11T04:20:22.974Z,77.80
2018-03-11T04:22:49.147Z,77.70
2018-03-11T04:25:15.329Z,77.70
2018-03-11T04:27:41.524Z,77.60
2018-03-11T04:30:07.727Z,77.60
2018-03-11T04:32:33.978Z,77.80
2018-03-11T04:35:00.151Z,77.90
2018-03-11T04:37:26.293Z,78.50
2018-03-11T04:39:53.240Z,78.50
2018-03-11T04:42:20.174Z,78.50
2018-03-11T04:44:47.109Z,79.00
2018-03-11T04:47:13.502Z,79.00
2018-03-11T04:49:40.641Z,78.90
2018-03-11T04:52:07.086Z,78.80
2018-03-11T04:54:33.494Z,79.10
2018-03-11T04:57:00.657Z,79.30
2018-03-11T04:59:26.877Z,79.30
2018-03-11T05:01:53.047Z,79.20
2018-03-11T05:04:19.237Z,79.20
2018-03-11T05:06:45.426Z,79.00
2018-03-11T05:09:12.293Z,79.10
2018-03-11T05:11:38.485Z,79.10
2018-03-11T05:14:05.442Z,78.90
2018-03-11T05:16:32.416Z,79.20
2018-03-11T05:18:58.600Z,79.20
2018-03-11T05:21:24.812Z,79.20
2018-03-11T05:23:50.994Z,79.30
2018-03-11T05:26:17.174Z,79.10
2018-03-11T05:28:43.425Z,79.00
2018-03-11T05:31:09.614Z,79.20
2018-03-11T05:33:35.760Z,79.40
2018-03-11T05:36:01.941Z,79.30
2018-03-11T05:38:28.106Z,79.30
2018-03-11T05:40:54.283Z,79.40
2018-03-11T05:43:20.462Z,79.40
2018-03-11T05:45:46.661Z,79.50
2018-03-11T05:48:13.635Z,79.80
2018-03-11T05:50:39.803Z,79.80
2018-03-11T05:53:05.937Z,79.80
2018-03-11T05:55:32.152Z,79.70
2018-03-11T05:57:58.300Z,79.50
2018-03-11T06:00:24.466Z,79.40
2018-03-11T06:02:50.678Z,79.40
2018-03-11T06:05:16.901Z,79.20
2018-03-11T06:07:43.106Z,79.00
2018-03-11T06:10:09.294Z,78.90
2018-03-11T06:12:35.494Z,79.00
2018-03-11T06:15:01.692Z,78.80
2018-03-11T06:17:27.866Z,78.40
2018-03-11T06:19:54.028Z,78.60
2018-03-11T06:22:20.230Z,78.50
2018-03-11T06:24:47.171Z,78.90
2018-03-11T06:27:13.318Z,78.90
2018-03-11T06:29:40.281Z,79.30
2018-03-11T06:32:06.425Z,79.30
2018-03-11T06:34:32.606Z,79.20
2018-03-11T06:36:59.531Z,79.80
2018-03-11T06:39:25.729Z,79.90
2018-03-11T06:41:51.865Z,79.60
2018-03-11T06:44:18.059Z,79.40
2018-03-11T06:46:44.233Z,80.10
2018-03-11T06:49:10.376Z,80.30
2018-03-11T06:51:36.553Z,80.20
2018-03-11T06:54:02.721Z,79.70
2018-03-11T06:56:28.919Z,79.90
2018-03-11T06:58:55.097Z,80.40
2018-03-11T07:01:22.014Z,80.20
2018-03-11T07:03:49.022Z,81.50
2018-03-11T07:06:15.216Z,80.60
2018-03-11T07:08:41.415Z,79.90
2018-03-11T07:11:07.626Z,80.50
2018-03-11T07:13:33.774Z,80.10
2018-03-11T07:16:00.725Z,80.10
2018-03-11T07:18:27.661Z,79.80
2018-03-11T07:20:53.830Z,79.70
2018-03-11T07:23:19.982Z,79.00
2018-03-11T07:25:46.246Z,78.80
2018-03-11T07:28:12.420Z,78.60
2018-03-11T07:30:38.623Z,78.20
2018-03-11T07:33:04.806Z,78.00
2018-03-11T07:35:30.965Z,78.20
2018-03-11T07:37:57.890Z,77.80
2018-03-11T07:40:24.134Z,77.80
2018-03-11T07:42:51.027Z,77.70
2018-03-11T07:45:17.182Z,77.70
2018-03-11T07:47:43.389Z,77.80
2018-03-11T07:50:09.579Z,78.60
2018-03-11T07:52:36.498Z,77.90
2018-03-11T07:55:02.685Z,77.80
2018-03-11T07:57:28.863Z,77.20
2018-03-11T07:59:55.074Z,77.80
2018-03-11T08:02:21.269Z,77.30
2018-03-11T08:04:47.482Z,77.40
2018-03-11T08:07:13.674Z,77.20
2018-03-11T08:09:40.608Z,77.40
2018-03-11T08:12:13.615Z,77.30
2018-03-11T08:14:39.790Z,76.60
2018-03-11T08:17:05.979Z,76.50
2018-03-11T08:19:32.166Z,76.20
2018-03-11T08:21:58.329Z,76.00
2018-03-11T08:24:25.258Z,75.90
2018-03-11T08:26:52.197Z,75.90
2018-03-11T08:29:18.389Z,75.90
2018-03-11T08:31:44.565Z,76.80
2018-03-11T08:34:10.777Z,77.10
2018-03-11T08:36:37.688Z,77.80
2018-03-11T08:39:03.937Z,77.80
2018-03-11T08:41:30.886Z,77.60
2018-03-11T08:43:57.849Z,77.40
2018-03-11T08:46:24.090Z,77.40
2018-03-11T08:48:50.268Z,76.70
2018-03-11T08:51:16.471Z,76.40
2018-03-11T08:53:42.708Z,75.20
2018-03-11T08:56:08.837Z,74.40
2018-03-11T08:58:35.046Z,75.10
2018-03-11T09:01:01.215Z,75.60
2018-03-11T09:03:27.445Z,75.60
2018-03-11T09:05:54.446Z,75.80
2018-03-11T09:08:20.646Z,75.70
2018-03-11T09:10:46.828Z,76.10
2018-03-11T09:13:13.023Z,75.90
2018-03-11T09:15:39.206Z,74.30
2018-03-11T09:18:06.171Z,75.00
2018-03-11T09:20:33.126Z,73.30
2018-03-11T09:22:59.357Z,73.20
2018-03-11T09:25:25.530Z,74.00
2018-03-11T09:27:51.677Z,72.60
2018-03-11T09:30:18.678Z,72.90
2018-03-11T09:32:44.870Z,72.70
2018-03-11T09:35:11.083Z,72.90
2018-03-11T09:37:38.160Z,71.30
2018-03-11T09:40:05.286Z,71.20
2018-03-11T09:42:31.635Z,71.10
2018-03-11T09:44:57.977Z,71.00
2018-03-11T09:47:24.416Z,71.00
2018-03-11T09:49:51.584Z,70.20
2018-03-11T09:52:18.806Z,70.70
2018-03-11T09:54:45.298Z,70.70
2018-03-11T09:57:11.598Z,70.50
2018-03-11T09:59:37.811Z,68.90
2018-03-11T10:02:03.998Z,68.40
2018-03-11T10:04:30.234Z,69.30
2018-03-11T10:06:57.151Z,68.30
2018-03-11T10:09:24.144Z,68.50
2018-03-11T10:11:50.325Z,68.50
2018-03-11T10:14:17.250Z,67.50
2018-03-11T10:16:43.470Z,67.40
2018-03-11T10:19:09.688Z,68.10
2018-03-11T10:21:35.873Z,69.50
2018-03-11T10:24:02.853Z,68.50
2018-03-11T10:26:29.006Z,68.50
2018-03-11T10:28:55.190Z,67.80
2018-03-11T10:31:21.382Z,68.00
2018-03-11T10:33:48.344Z,66.70
2018-03-11T10:36:14.670Z,66.70
2018-03-11T10:38:40.904Z,66.60
2018-03-11T10:41:07.814Z,67.00
2018-03-11T10:43:33.982Z,66.90
2018-03-11T10:46:00.213Z,67.40
2018-03-11T10:48:26.421Z,64.70
2018-03-11T10:50:53.413Z,65.50
2018-03-11T10:53:19.580Z,65.60
2018-03-11T10:55:45.782Z,65.20
2018-03-11T10:58:11.969Z,64.90
2018-03-11T11:00:40.035Z,63.90
2018-03-11T11:03:12.098Z,64.20
2018-03-11T11:05:38.271Z,64.20
2018-03-11T11:08:04.547Z,63.50
2018-03-11T11:10:30.755Z,63.70
2018-03-11T11:12:57.676Z,62.20
2018-03-11T11:15:23.862Z,62.10
2018-03-11T11:17:50.042Z,60.50
2018-03-11T11:20:16.303Z,61.30
2018-03-11T11:22:42.493Z,61.10
2018-03-11T11:25:08.680Z,60.10
2018-03-11T11:27:34.946Z,60.70
2018-03-11T11:30:01.106Z,60.00
2018-03-11T11:32:27.305Z,60.70
2018-03-11T11:34:53.518Z,61.00
2018-03-11T11:37:19.728Z,60.20
2018-03-11T11:39:45.911Z,59.80
2018-03-11T11:42:12.823Z,59.70
2018-03-11T11:44:39.039Z,59.70
2018-03-11T11:47:05.258Z,60.20
2018-03-11T11:49:31.414Z,59.80
2018-03-11T11:51:57.577Z,60.40
2018-03-11T11:54:23.769Z,61.10
2018-03-11T11:56:49.977Z,59.30
2018-03-11T11:59:16.171Z,59.00
2018-03-11T12:01:42.374Z,59.10
2018-03-11T12:04:09.374Z,58.20
2018-03-11T12:06:35.622Z,58.20
2018-03-11T12:09:01.826Z,59.40
2018-03-11T12:11:28.061Z,58.30
2018-03-11T12:13:54.230Z,57.80
2018-03-11T12:16:21.149Z,57.60
2018-03-11T12:18:47.328Z,57.60
2018-03-11T12:21:13.540Z,58.10
2018-03-11T12:23:40.454Z,57.30
2018-03-11T12:26:07.413Z,56.90
2018-03-11T12:28:33.560Z,56.90
2018-03-11T12:30:59.796Z,57.40
2018-03-11T12:33:26.002Z,58.00
2018-03-11T12:35:52.225Z,58.10
2018-03-11T12:38:18.461Z,57.20
2018-03-11T12:40:45.520Z,57.50
2018-03-11T12:43:11.734Z,57.50
2018-03-11T12:45:38.698Z,58.40
2018-03-11T12:48:04.954Z,58.40
2018-03-11T12:50:31.146Z,58.50
2018-03-11T12:52:57.366Z,58.20
2018-03-11T12:55:23.599Z,58.20
2018-03-11T12:57:50.507Z,57.70
2018-03-11T13:00:16.706Z,57.70
2018-03-11T13:02:42.960Z,57.60
2018-03-11T13:05:09.149Z,57.00
2018-03-11T13:07:35.360Z,56.50
2018-03-11T13:10:01.558Z,57.00
2018-03-11T13:12:34.826Z,57.60
2018-03-11T13:15:01.014Z,57.50
2018-03-11T13:17:27.192Z,57.30
2018-03-11T13:20:06.543Z,58.00
2018-03-11T13:22:33.485Z,57.80
2018-03-11T13:24:59.694Z,57.80
2018-03-11T13:27:25.918Z,57.80
2018-03-11T13:29:52.139Z,58.10
2018-03-11T13:32:30.709Z,57.90
2018-03-11T13:34:56.862Z,58.10
2018-03-11T13:37:23.099Z,58.20
2018-03-11T13:42:52.090Z,57.70
2018-03-11T13:45:32.207Z,57.90
2018-03-11T13:48:00.502Z,57.80
2018-03-11T13:50:28.765Z,57.80
2018-03-11T13:53:08.952Z,58.00
2018-03-11T13:55:37.221Z,58.40
2018-03-11T13:58:26.535Z,58.40
2018-03-11T14:00:54.780Z,58.80
2018-03-11T14:03:23.101Z,59.20
2018-03-11T14:05:51.434Z,59.30
2018-03-11T14:08:19.695Z,59.90
2018-03-11T14:10:47.971Z,59.50
2018-03-11T14:13:16.254Z,59.70
2018-03-11T14:15:44.509Z,60.00
2018-03-11T14:18:12.779Z,61.00
2018-03-11T14:20:41.100Z,60.90
2018-03-11T14:23:10.115Z,61.40
2018-03-11T14:25:38.422Z,61.30
2018-03-11T14:28:06.677Z,61.50
2018-03-11T14:30:34.945Z,60.60
2018-03-11T14:33:03.279Z,60.60
2018-03-11T14:35:31.570Z,60.80
2018-03-11T14:37:59.792Z,60.50
2018-03-11T14:40:28.041Z,59.80
2018-03-11T14:42:56.342Z,60.30
2018-03-11T14:45:24.638Z,59.90
2018-03-11T14:47:52.894Z,59.60
2018-03-11T14:50:21.185Z,59.10
2018-03-11T14:52:49.484Z,58.80
2018-03-11T14:55:17.742Z,58.80
2018-03-11T14:57:45.994Z,59.20
2018-03-11T15:00:14.234Z,59.10
2018-03-11T15:02:43.293Z,58.60
2018-03-11T15:05:11.564Z,58.50
2018-03-11T15:07:39.790Z,58.60
2018-03-11T15:10:08.074Z,58.30
2018-03-11T15:12:36.830Z,58.10
2018-03-11T15:15:05.893Z,58.10
2018-03-11T15:17:34.176Z,58.50
2018-03-11T15:20:02.475Z,58.50
2018-03-11T15:22:30.742Z,58.50
2018-03-11T15:24:59.029Z,58.60
2018-03-11T15:27:27.336Z,58.80
2018-03-11T15:29:56.370Z,59.30
2018-03-11T15:32:24.645Z,59.30
2018-03-11T15:34:52.923Z,59.20
2018-03-11T15:37:21.210Z,59.40
2018-03-11T15:39:49.475Z,59.70
2018-03-11T15:42:17.746Z,59.70
2018-03-11T15:44:46.046Z,59.80
2018-03-11T15:47:14.311Z,59.90
2018-03-11T15:49:43.358Z,60.30
2018-03-11T15:52:11.647Z,61.10
2018-03-11T15:54:39.899Z,60.70
2018-03-11T15:57:08.963Z,61.20
2018-03-11T15:59:37.612Z,61.20
2018-03-11T16:02:05.895Z,61.40
2018-03-11T16:04:34.183Z,61.40
2018-03-11T16:07:02.453Z,61.90
2018-03-11T16:09:30.701Z,62.10
2018-03-11T16:11:59.002Z,62.20
2018-03-11T16:14:27.242Z,62.30
2018-03-11T16:16:55.519Z,62.40
2018-03-11T16:19:23.811Z,62.80
2018-03-11T16:21:52.611Z,62.70
2018-03-11T16:24:28.472Z,62.70
2018-03-11T16:26:49.161Z,62.70
2018-03-11T16:29:17.448Z,62.80
2018-03-11T16:31:45.742Z,62.90
2018-03-11T16:34:14.043Z,62.90
2018-03-11T16:36:43.107Z,63.30
2018-03-11T16:39:11.360Z,63.20
2018-03-11T16:41:39.658Z,63.20
2018-03-11T16:44:07.913Z,63.40
2018-03-11T16:46:36.199Z,63.50
2018-03-11T16:49:04.495Z,63.80
2018-03-11T16:51:33.082Z,63.90
2018-03-11T16:54:02.083Z,64.10
2018-03-11T16:56:30.336Z,64.30
2018-03-11T16:58:58.616Z,64.60
2018-03-11T17:01:26.913Z,64.60
2018-03-11T17:03:55.180Z,64.60
2018-03-11T17:06:23.428Z,64.70
2018-03-11T17:08:51.722Z,64.80
2018-03-11T17:11:19.961Z,64.80
2018-03-11T17:13:48.238Z,64.80
2018-03-11T17:16:17.063Z,65.00
2018-03-11T17:18:45.356Z,65.30
2018-03-11T17:21:13.577Z,65.60
2018-03-11T17:23:41.875Z,65.80
2018-03-11T17:26:10.156Z,65.60
2018-03-11T17:28:38.522Z,65.60
2018-03-11T17:31:06.787Z,65.40
2018-03-11T17:33:35.042Z,65.40
2018-03-11T17:36:03.344Z,65.40
2018-03-11T17:38:31.665Z,65.40
2018-03-11T17:40:59.922Z,65.40
2018-03-11T17:43:28.248Z,65.50
2018-03-11T17:45:57.353Z,65.70
2018-03-11T17:48:25.790Z,65.60
2018-03-11T17:50:54.086Z,65.90
2018-03-11T17:53:23.183Z,66.40
2018-03-11T17:55:52.210Z,66.60
2018-03-11T17:58:20.520Z,66.60
2018-03-11T18:00:48.787Z,66.70
2018-03-11T18:03:17.054Z,67.00
2018-03-11T18:05:46.117Z,67.00
2018-03-11T18:08:14.407Z,67.20
2018-03-11T18:10:42.717Z,67.40
2018-03-11T18:13:11.023Z,67.40
2018-03-11T18:15:40.088Z,67.60
2018-03-11T18:18:08.399Z,67.50
2018-03-11T18:20:37.468Z,68.10
2018-03-11T18:23:05.754Z,68.00
2018-03-11T18:25:34.062Z,67.70
2018-03-11T18:28:03.108Z,68.90
2018-03-11T18:30:31.399Z,68.70
2018-03-11T18:32:59.660Z,69.00
2018-03-11T18:35:27.955Z,69.10
2018-03-11T18:37:56.267Z,69.20
2018-03-11T18:40:24.598Z,69.40
2018-03-11T18:42:52.908Z,69.30
2018-03-11T18:45:21.199Z,69.30
2018-03-11T18:47:49.489Z,69.40
2018-03-11T18:50:17.907Z,69.60
2018-03-11T18:52:46.204Z,69.70
2018-03-11T18:55:15.258Z,70.00
2018-03-11T18:57:43.558Z,70.00
2018-03-11T19:00:11.929Z,70.00
2018-03-11T19:02:40.220Z,70.00
2018-03-11T19:05:08.540Z,70.00
2018-03-11T19:07:36.825Z,70.20
2018-03-11T19:10:05.091Z,70.20
2018-03-11T19:12:33.410Z,70.30
2018-03-11T19:15:01.907Z,70.30
2018-03-11T19:17:30.194Z,70.20
2018-03-11T19:19:59.315Z,70.60
2018-03-11T19:22:27.614Z,70.50
2018-03-11T19:24:55.976Z,70.60
2018-03-11T19:27:24.254Z,71.10
2018-03-11T19:29:52.583Z,71.40
2018-03-11T19:32:21.638Z,72.00
2018-03-11T19:34:50.045Z,72.00
2018-03-11T19:37:18.330Z,72.30
2018-03-11T19:39:47.074Z,72.30
2018-03-11T19:42:15.338Z,72.60
2018-03-11T19:44:44.359Z,72.90
2018-03-11T19:47:12.674Z,72.90
2018-03-11T19:49:41.723Z,73.50
2018-03-11T19:52:09.998Z,73.50
2018-03-11T19:54:38.390Z,73.50
2018-03-11T19:57:06.714Z,73.40
2018-03-11T19:59:36.696Z,73.80
2018-03-11T20:02:05.670Z,73.70
2018-03-11T20:04:33.962Z,73.70
2018-03-11T20:07:02.227Z,73.40
2018-03-11T20:09:30.537Z,73.60
2018-03-11T20:11:58.810Z,73.60
2018-03-11T20:14:27.876Z,74.20
2018-03-11T20:16:57.122Z,74.00
2018-03-11T20:19:25.424Z,74.30
2018-03-11T20:21:53.699Z,74.50
2018-03-11T20:24:22.012Z,74.50
2018-03-11T20:26:50.303Z,74.40
2018-03-11T20:29:19.372Z,74.30
2018-03-11T20:31:47.703Z,74.60
2018-03-11T20:34:16.808Z,74.90
2018-03-11T20:36:45.092Z,75.00
2018-03-11T20:39:13.391Z,75.00
2018-03-11T20:41:41.683Z,75.20
2018-03-11T20:44:10.009Z,75.20
2018-03-11T20:46:38.334Z,75.50
2018-03-11T20:49:06.595Z,75.30
2018-03-11T20:51:34.925Z,75.60
2018-03-11T20:54:04.584Z,75.90
2018-03-11T20:56:32.841Z,75.90
2018-03-11T20:59:01.138Z,75.90
2018-03-11T21:01:29.415Z,76.20
2018-03-11T21:03:57.678Z,76.40
2018-03-11T21:06:25.973Z,76.60
2018-03-11T21:08:54.252Z,76.70
2018-03-11T21:11:22.571Z,76.60
2018-03-11T21:13:50.843Z,76.80
2018-03-11T21:16:19.885Z,76.80
2018-03-11T21:18:48.198Z,76.80
2018-03-11T21:21:16.460Z,77.70
2018-03-11T21:23:44.765Z,77.40
2018-03-11T21:26:13.827Z,78.40
2018-03-11T21:28:42.092Z,78.40
2018-03-11T21:31:10.391Z,78.30
2018-03-11T21:33:38.694Z,78.10
2018-03-11T21:36:06.952Z,79.00
2018-03-11T21:38:36.035Z,78.30
2018-03-11T21:41:04.303Z,78.30
2018-03-11T21:43:32.566Z,79.30
2018-03-11T21:46:00.860Z,79.20
2018-03-11T21:48:29.143Z,79.00
2018-03-11T21:50:57.384Z,79.60
2018-03-11T21:53:26.476Z,80.10
2018-03-11T21:55:54.743Z,80.10
2018-03-11T21:58:23.031Z,80.20
2018-03-11T22:00:51.315Z,80.00
2018-03-11T22:03:19.615Z,80.10
2018-03-11T22:05:47.905Z,80.00
2018-03-11T22:08:16.966Z,80.90
2018-03-11T22:10:45.235Z,80.90
2018-03-11T22:13:13.557Z,80.70
2018-03-11T22:15:42.601Z,80.90
2018-03-11T22:18:10.867Z,80.90
2018-03-11T22:20:39.167Z,80.60
2018-03-11T22:23:07.439Z,80.80
2018-03-11T22:25:35.710Z,81.20
2018-03-11T22:28:03.985Z,81.00
2018-03-11T22:30:32.252Z,80.90
2018-03-11T22:33:01.267Z,81.30
2018-03-11T22:35:29.565Z,81.30
2018-03-11T22:37:58.601Z,81.20
2018-03-11T22:40:26.885Z,81.20
2018-03-11T22:42:55.204Z,81.00
2018-03-11T22:45:24.199Z,81.20
2018-03-11T22:47:52.481Z,82.70
2018-03-11T22:50:20.722Z,81.20
2018-03-11T22:52:48.997Z,81.50
2018-03-11T22:55:17.301Z,82.00
2018-03-11T22:57:45.569Z,82.30
2018-03-11T23:00:13.864Z,82.20
2018-03-11T23:02:42.153Z,81.70
2018-03-11T23:05:10.450Z,81.60
2018-03-11T23:07:38.695Z,82.20
2018-03-11T23:10:06.997Z,83.10
2018-03-11T23:12:35.249Z,84.00
2018-03-11T23:15:04.330Z,83.30
2018-03-11T23:17:32.642Z,83.30
2018-03-11T23:20:01.259Z,83.60
2018-03-11T23:22:29.518Z,83.10
2018-03-11T23:24:57.810Z,82.70
2018-03-11T23:27:26.082Z,83.00
2018-03-11T23:29:54.349Z,85.10
2018-03-11T23:32:22.627Z,85.50
2018-03-11T23:34:50.905Z,84.30
2018-03-11T23:37:19.775Z,85.70
2018-03-11T23:39:48.015Z,86.30
2018-03-11T23:42:17.083Z,86.70
2018-03-11T23:44:45.362Z,86.70
2018-03-11T23:47:13.631Z,86.40
2018-03-11T23:49:41.930Z,86.90
2018-03-11T23:52:10.197Z,86.70
2018-03-11T23:54:38.553Z,87.00
2018-03-11T23:57:06.846Z,86.70
2018-03-11T23:59:35.096Z,86.40
